Time;durP1;ratioP1;P1;durP2;ratioP2;P2;SDS_P1;SDS_P2;PMS_P1;PMS_P2;Temp;Humidity;BMP_temperature;BMP_pressure;BME280_temperature;BME280_humidity;BME280_pressure;Samples;Min_cycle;Max_cycle;Signal;HPM_P1;HPM_P2
2020/12/19 00:00:05;;;;;;;;;;;7.80;76.80;;;;;;4953158;28;117503;-90
2020/12/19 00:02:30;;;;;;;;;;;7.80;76.80;;;;;;4969034;28;117484;-89
2020/12/19 00:04:56;;;;;;;;;;;7.80;76.70;;;;;;4968641;28;120169;-90
2020/12/19 00:07:22;;;;;;;;;;;7.80;76.80;;;;;;4952804;28;120762;-89
2020/12/19 00:09:47;;;;;;;;;;;7.80;76.80;;;;;;4953736;28;117417;-90
2020/12/19 00:12:13;;;;;;;;;;;7.80;76.80;;;;;;4953305;28;117847;-90
2020/12/19 00:14:39;;;;;;;;;;;7.80;76.80;;;;;;4951916;28;120475;-89
2020/12/19 00:17:07;;;;;;;;;;;7.80;76.90;;;;;;4951686;28;120486;-90
2020/12/19 00:19:33;;;;;;;;;;;7.80;76.80;;;;;;4953393;28;117448;-89
2020/12/19 00:21:58;;;;;;;;;;;7.80;76.80;;;;;;4952409;28;117760;-90
2020/12/19 00:24:24;;;;;;;;;;;7.80;76.80;;;;;;4951656;28;119811;-90
2020/12/19 00:26:50;;;;;;;;;;;7.80;76.80;;;;;;4950352;28;120629;-90
2020/12/19 00:29:16;;;;;;;;;;;7.80;76.80;;;;;;4951877;28;117421;-90
2020/12/19 00:31:41;;;;;;;;;;;7.80;76.80;;;;;;4952295;28;117551;-90
2020/12/19 00:34:07;;;;;;;;;;;7.80;76.80;;;;;;4950872;28;121327;-90
2020/12/19 00:36:33;;;;;;;;;;;7.80;76.80;;;;;;4967082;28;119388;-89
2020/12/19 00:38:59;;;;;;;;;;;7.80;76.80;;;;;;4968196;28;117647;-90
2020/12/19 00:41:25;;;;;;;;;;;7.80;76.80;;;;;;4952065;28;117285;-90
2020/12/19 00:43:51;;;;;;;;;;;7.80;76.80;;;;;;4967314;28;121073;-90
2020/12/19 00:46:16;;;;;;;;;;;7.80;76.80;;;;;;4966860;28;118893;-90
2020/12/19 00:48:42;;;;;;;;;;;7.80;76.80;;;;;;4965500;28;117798;-90
2020/12/19 00:51:14;;;;;;;;;;;7.80;76.90;;;;;;4949626;28;117873;-90
2020/12/19 00:53:43;;;;;;;;;;;7.80;76.80;;;;;;4965023;28;120235;-90
2020/12/19 00:56:22;;;;;;;;;;;7.80;76.80;;;;;;4965516;28;119984;-90
2020/12/19 00:58:49;;;;;;;;;;;7.80;76.80;;;;;;4966867;28;117520;-90
2020/12/19 01:01:14;;;;;;;;;;;7.80;76.80;;;;;;4967294;28;117318;-90
2020/12/19 01:03:40;;;;;;;;;;;7.80;76.80;;;;;;4965815;28;120504;-90
2020/12/19 01:06:06;;;;;;;;;;;7.80;76.80;;;;;;4969223;28;119458;-90
2020/12/19 01:08:32;;;;;;;;;;;7.80;76.80;;;;;;4954457;28;117503;-90
2020/12/19 01:10:57;;;;;;;;;;;7.80;76.80;;;;;;4955003;28;117695;-90
2020/12/19 01:13:23;;;;;;;;;;;7.80;76.70;;;;;;4953639;28;120090;-90
2020/12/19 01:15:49;;;;;;;;;;;7.80;76.80;;;;;;4953025;28;118988;-91
2020/12/19 01:18:16;;;;;;;;;;;7.80;76.80;;;;;;4971040;28;117612;-90
2020/12/19 01:20:41;;;;;;;;;;;7.80;76.70;;;;;;4971489;28;117385;-90
2020/12/19 01:23:07;;;;;;;;;;;7.80;76.80;;;;;;4954245;28;120113;-90
2020/12/19 01:25:32;;;;;;;;;;;7.80;76.70;;;;;;4954749;28;119542;-90
2020/12/19 01:27:58;;;;;;;;;;;7.80;76.80;;;;;;4955171;28;117726;-90
2020/12/19 01:30:23;;;;;;;;;;;7.80;76.80;;;;;;4955064;28;117817;-90
2020/12/19 01:32:50;;;;;;;;;;;7.80;76.80;;;;;;4953617;28;121364;-90
2020/12/19 01:35:16;;;;;;;;;;;7.80;76.80;;;;;;4953758;28;119036;-90
2020/12/19 01:37:42;;;;;;;;;;;7.80;76.80;;;;;;4954072;28;117592;-90
2020/12/19 01:40:08;;;;;;;;;;;7.80;76.80;;;;;;4970039;28;117450;-90
2020/12/19 01:42:33;;;;;;;;;;;7.80;76.80;;;;;;4952798;28;121165;-90
2020/12/19 01:44:59;;;;;;;;;;;7.80;76.80;;;;;;4952815;28;119073;-90
2020/12/19 01:47:27;;;;;;;;;;;7.80;76.80;;;;;;4909149;28;1699714;-90
2020/12/19 01:49:53;;;;;;;;;;;7.80;76.80;;;;;;4954528;28;117877;-90
2020/12/19 01:52:19;;;;;;;;;;;7.80;76.80;;;;;;4953603;28;120074;-90
2020/12/19 01:54:45;;;;;;;;;;;7.80;76.80;;;;;;4969711;28;119626;-90
2020/12/19 01:57:10;;;;;;;;;;;7.80;76.80;;;;;;4970128;28;117439;-90
2020/12/19 01:59:36;;;;;;;;;;;7.80;76.80;;;;;;4954363;28;117626;-90
2020/12/19 02:02:05;;;;;;;;;;;7.80;76.80;;;;;;4952904;28;121049;-90
2020/12/19 02:04:34;;;;;;;;;;;7.70;76.80;;;;;;4968736;28;119783;-90
2020/12/19 02:07:00;;;;;;;;;;;7.70;76.80;;;;;;4953619;28;117650;-90
2020/12/19 02:09:27;;;;;;;;;;;7.80;76.90;;;;;;4970429;28;117436;-90
2020/12/19 02:11:53;;;;;;;;;;;7.70;76.80;;;;;;4969229;28;120199;-90
2020/12/19 02:14:18;;;;;;;;;;;7.70;76.80;;;;;;4953213;28;119358;-90
2020/12/19 02:16:57;;;;;;;;;;;7.80;76.80;;;;;;4953327;28;117382;-90
2020/12/19 02:19:23;;;;;;;;;;;7.70;76.80;;;;;;4970520;28;117528;-90
2020/12/19 02:21:48;;;;;;;;;;;7.80;76.80;;;;;;4953385;28;119711;-90
2020/12/19 02:24:14;;;;;;;;;;;7.70;76.80;;;;;;4953332;28;119654;-90
2020/12/19 02:26:39;;;;;;;;;;;7.70;76.80;;;;;;4954189;28;117607;-90
2020/12/19 02:29:05;;;;;;;;;;;7.70;76.80;;;;;;4953782;28;117381;-90
2020/12/19 02:31:30;;;;;;;;;;;7.70;76.80;;;;;;4953598;28;120702;-90
2020/12/19 02:33:56;;;;;;;;;;;7.70;76.80;;;;;;4953613;28;119218;-90
2020/12/19 02:36:22;;;;;;;;;;;7.70;76.80;;;;;;4954159;28;117515;-90
2020/12/19 02:38:47;;;;;;;;;;;7.80;76.90;;;;;;4955089;28;117842;-90
2020/12/19 02:41:13;;;;;;;;;;;7.80;76.80;;;;;;4954732;28;121033;-90
2020/12/19 02:43:38;;;;;;;;;;;7.70;76.80;;;;;;4954076;28;120440;-90
2020/12/19 02:46:04;;;;;;;;;;;7.70;76.80;;;;;;4954621;28;117443;-90
2020/12/19 02:48:29;;;;;;;;;;;7.70;76.80;;;;;;4954226;28;117730;-90
2020/12/19 02:50:55;;;;;;;;;;;7.70;76.90;;;;;;4953061;28;120070;-90
2020/12/19 02:53:20;;;;;;;;;;;7.70;76.80;;;;;;4952622;28;119162;-90
2020/12/19 02:55:51;;;;;;;;;;;7.70;77.40;;;;;;4953877;28;117611;-90
2020/12/19 02:58:17;;;;;;;;;;;7.70;76.90;;;;;;4970603;28;117694;-90
2020/12/19 03:00:43;;;;;;;;;;;7.70;77.00;;;;;;4952857;28;119434;-90
2020/12/19 03:03:09;;;;;;;;;;;7.70;76.90;;;;;;4968677;28;119462;-90
2020/12/19 03:05:34;;;;;;;;;;;7.70;76.90;;;;;;4952954;28;117721;-90
2020/12/19 03:08:00;;;;;;;;;;;7.70;76.90;;;;;;4953420;28;117607;-90
2020/12/19 03:10:26;;;;;;;;;;;7.70;76.90;;;;;;4952277;28;120380;-90
2020/12/19 03:12:51;;;;;;;;;;;7.70;76.90;;;;;;4952532;28;119507;-90
2020/12/19 03:15:17;;;;;;;;;;;7.80;76.90;;;;;;4953159;28;117846;-91
2020/12/19 03:17:43;;;;;;;;;;;7.70;76.90;;;;;;4954304;28;117656;-90
2020/12/19 03:20:08;;;;;;;;;;;7.80;76.90;;;;;;4951917;28;120404;-90
2020/12/19 03:22:34;;;;;;;;;;;7.70;76.90;;;;;;4951632;28;119157;-90
2020/12/19 03:25:00;;;;;;;;;;;7.70;76.90;;;;;;4952628;28;117436;-90
2020/12/19 03:27:25;;;;;;;;;;;7.70;77.00;;;;;;4951706;28;117293;-90
2020/12/19 03:29:51;;;;;;;;;;;7.70;77.00;;;;;;4951697;28;120347;-90
2020/12/19 03:32:16;;;;;;;;;;;7.70;76.90;;;;;;4951914;28;120268;-90
2020/12/19 03:34:42;;;;;;;;;;;7.70;77.00;;;;;;4952807;28;117255;-90
2020/12/19 03:37:07;;;;;;;;;;;7.70;76.90;;;;;;4953071;28;117317;-90
2020/12/19 03:39:33;;;;;;;;;;;7.70;77.00;;;;;;4952076;28;120950;-90
2020/12/19 03:41:58;;;;;;;;;;;7.70;76.90;;;;;;4951540;28;119535;-90
2020/12/19 03:44:24;;;;;;;;;;;7.70;76.90;;;;;;4952848;28;117673;-90
2020/12/19 03:46:49;;;;;;;;;;;7.70;76.90;;;;;;4953155;28;117317;-90
2020/12/19 03:49:15;;;;;;;;;;;7.70;76.90;;;;;;4952155;28;120379;-90
2020/12/19 03:51:40;;;;;;;;;;;7.70;77.00;;;;;;4952598;28;120190;-90
2020/12/19 03:54:06;;;;;;;;;;;7.70;76.90;;;;;;4953666;28;117482;-90
2020/12/19 03:56:31;;;;;;;;;;;7.70;76.90;;;;;;4954081;28;117516;-90
2020/12/19 03:58:57;;;;;;;;;;;7.70;77.00;;;;;;4953424;28;120498;-90
2020/12/19 04:01:25;;;;;;;;;;;7.70;76.90;;;;;;4952944;28;119157;-90
2020/12/19 04:03:50;;;;;;;;;;;7.70;76.90;;;;;;4953530;28;117615;-90
2020/12/19 04:06:16;;;;;;;;;;;7.70;76.90;;;;;;4952449;28;120319;-90
2020/12/19 04:08:41;;;;;;;;;;;7.70;77.00;;;;;;4951920;28;119699;-90
2020/12/19 04:11:07;;;;;;;;;;;7.70;77.00;;;;;;4951799;28;119412;-90
2020/12/19 04:13:33;;;;;;;;;;;7.80;77.00;;;;;;4952544;28;117453;-90
2020/12/19 04:15:58;;;;;;;;;;;7.70;77.00;;;;;;4952583;28;117960;-90
2020/12/19 04:18:24;;;;;;;;;;;7.70;77.00;;;;;;4951454;28;120124;-90
2020/12/19 04:20:49;;;;;;;;;;;7.70;77.00;;;;;;4951429;28;119504;-90
2020/12/19 04:23:15;;;;;;;;;;;7.70;77.00;;;;;;4952300;28;117560;-90
2020/12/19 04:25:40;;;;;;;;;;;7.70;76.90;;;;;;4951744;28;117777;-90
2020/12/19 04:28:06;;;;;;;;;;;7.70;77.00;;;;;;4950727;28;120140;-90
2020/12/19 04:30:32;;;;;;;;;;;7.70;77.00;;;;;;4950212;28;119338;-90
2020/12/19 04:32:57;;;;;;;;;;;7.70;77.00;;;;;;4951351;28;117613;-90
2020/12/19 04:35:23;;;;;;;;;;;7.70;77.00;;;;;;4951592;28;118172;-90
2020/12/19 04:37:48;;;;;;;;;;;7.70;77.00;;;;;;4950584;28;121272;-90
2020/12/19 04:40:16;;;;;;;;;;;7.70;77.00;;;;;;4950259;28;120463;-90
2020/12/19 04:42:42;;;;;;;;;;;7.70;77.00;;;;;;4951701;28;117571;-90
2020/12/19 04:45:07;;;;;;;;;;;7.70;76.90;;;;;;4968145;28;117785;-90
2020/12/19 04:47:33;;;;;;;;;;;7.70;76.90;;;;;;4950187;28;121121;-90
2020/12/19 04:49:59;;;;;;;;;;;7.70;76.90;;;;;;4950626;28;119414;-90
2020/12/19 04:52:25;;;;;;;;;;;7.70;76.90;;;;;;4951812;28;117444;-90
2020/12/19 04:54:51;;;;;;;;;;;7.70;76.90;;;;;;4968179;28;117528;-90
2020/12/19 04:57:17;;;;;;;;;;;7.70;76.90;;;;;;4967320;28;121586;-90
2020/12/19 04:59:43;;;;;;;;;;;7.70;76.90;;;;;;4967551;28;119550;-90
2020/12/19 05:02:09;;;;;;;;;;;7.70;76.90;;;;;;4952065;28;117583;-90
2020/12/19 05:04:37;;;;;;;;;;;7.70;76.90;;;;;;4952425;28;117886;-90
2020/12/19 05:07:06;;;;;;;;;;;7.70;76.90;;;;;;4951249;28;120376;-90
2020/12/19 05:09:39;;;;;;;;;;;7.70;76.90;;;;;;4951890;28;119718;-90
2020/12/19 05:12:06;;;;;;;;;;;7.70;76.90;;;;;;4968930;28;117397;-90
2020/12/19 05:14:32;;;;;;;;;;;7.70;76.90;;;;;;4953913;28;117568;-90
2020/12/19 05:16:58;;;;;;;;;;;7.70;76.90;;;;;;4951468;28;120911;-90
2020/12/19 05:19:24;;;;;;;;;;;7.70;76.90;;;;;;4966925;28;119568;-90
2020/12/19 05:21:52;;;;;;;;;;;7.70;76.80;;;;;;4968289;28;117515;-90
2020/12/19 05:24:17;;;;;;;;;;;7.70;76.80;;;;;;4968538;28;117225;-90
2020/12/19 05:26:43;;;;;;;;;;;7.70;76.80;;;;;;4950671;28;120479;-90
2020/12/19 05:29:09;;;;;;;;;;;7.70;76.80;;;;;;4950459;28;119002;-90
2020/12/19 05:31:34;;;;;;;;;;;7.70;76.80;;;;;;4967907;28;117514;-90
2020/12/19 05:34:00;;;;;;;;;;;7.70;76.80;;;;;;4951660;28;117063;-90
2020/12/19 05:36:28;;;;;;;;;;;7.70;76.80;;;;;;4950560;28;119829;-90
2020/12/19 05:39:03;;;;;;;;;;;7.70;76.80;;;;;;4950961;28;119996;-90
2020/12/19 05:41:29;;;;;;;;;;;7.70;76.80;;;;;;4967361;28;117403;-90
2020/12/19 05:43:54;;;;;;;;;;;7.70;76.80;;;;;;4950771;28;117573;-90
2020/12/19 05:46:27;;;;;;;;;;;7.70;76.70;;;;;;4949349;28;120072;-90
2020/12/19 05:48:53;;;;;;;;;;;7.70;77.40;;;;;;4965921;28;119067;-90
2020/12/19 05:51:18;;;;;;;;;;;7.70;76.70;;;;;;4968742;28;117601;-90
2020/12/19 05:53:44;;;;;;;;;;;7.60;76.60;;;;;;4954281;28;117787;-90
2020/12/19 05:56:09;;;;;;;;;;;7.70;76.70;;;;;;4952818;28;121436;-90
2020/12/19 05:58:35;;;;;;;;;;;7.70;76.60;;;;;;4953251;28;120628;-90
2020/12/19 06:01:00;;;;;;;;;;;7.60;76.60;;;;;;4954222;28;117403;-90
2020/12/19 06:03:26;;;;;;;;;;;7.70;76.60;;;;;;4954407;28;117253;-90
2020/12/19 06:05:52;;;;;;;;;;;7.60;76.60;;;;;;4952806;28;120840;-90
2020/12/19 06:08:18;;;;;;;;;;;7.70;76.60;;;;;;4952838;28;118909;-90
2020/12/19 06:10:44;;;;;;;;;;;7.70;76.60;;;;;;4970398;28;117406;-90
2020/12/19 06:13:15;;;;;;;;;;;7.70;76.70;;;;;;4954618;28;117961;-90
2020/12/19 06:15:45;;;;;;;;;;;7.70;76.60;;;;;;4969427;28;120145;-90
2020/12/19 06:18:30;;;;;;;;;;;7.60;76.50;;;;;;4969918;28;119638;-90
2020/12/19 06:20:55;;;;;;;;;;;7.70;76.60;;;;;;4987293;28;117736;-90
2020/12/19 06:23:23;;;;;;;;;;;7.60;76.50;;;;;;4954913;28;117483;-90
2020/12/19 06:25:49;;;;;;;;;;;7.60;76.50;;;;;;4954075;28;120799;-90
2020/12/19 06:28:50;;;;;;;;;;;7.60;76.80;;;;;;4953824;28;119448;-91
2020/12/19 06:31:16;;;;;;;;;;;7.70;76.50;;;;;;4912550;28;117666;-90
2020/12/19 06:33:42;;;;;;;;;;;7.60;76.40;;;;;;4958306;28;117095;-90
2020/12/19 06:36:13;;;;;;;;;;;7.60;76.50;;;;;;4969940;28;119949;-90
2020/12/19 06:38:40;;;;;;;;;;;7.70;76.50;;;;;;4969830;28;119578;-90
2020/12/19 06:41:05;;;;;;;;;;;7.60;76.40;;;;;;4971159;28;117621;-91
2020/12/19 06:43:31;;;;;;;;;;;7.60;76.50;;;;;;4954120;28;117835;-90
2020/12/19 06:45:56;;;;;;;;;;;7.60;76.40;;;;;;4952592;28;121221;-90
2020/12/19 06:48:28;;;;;;;;;;;7.60;76.40;;;;;;4952520;28;119431;-90
2020/12/19 06:50:58;;;;;;;;;;;7.60;76.40;;;;;;4970022;28;117320;-90
2020/12/19 06:53:23;;;;;;;;;;;7.60;76.40;;;;;;4970113;28;117541;-90
2020/12/19 06:55:49;;;;;;;;;;;7.60;76.30;;;;;;4952389;28;121052;-90
2020/12/19 06:58:25;;;;;;;;;;;7.60;76.30;;;;;;4951443;28;119291;-90
2020/12/19 07:00:51;;;;;;;;;;;7.60;76.30;;;;;;4969050;28;117293;-90
2020/12/19 07:03:28;;;;;;;;;;;7.60;76.30;;;;;;4951959;28;117369;-90
2020/12/19 07:05:55;;;;;;;;;;;7.60;76.40;;;;;;4967945;28;119694;-91
2020/12/19 07:08:21;;;;;;;;;;;7.60;76.30;;;;;;4968104;28;119259;-92
2020/12/19 07:10:47;;;;;;;;;;;7.60;76.30;;;;;;4969194;28;116548;-91
2020/12/19 07:13:12;;;;;;;;;;;7.60;76.50;;;;;;4953735;28;116944;-91
2020/12/19 07:15:42;;;;;;;;;;;7.60;76.50;;;;;;4952273;28;120302;-92
2020/12/19 07:18:22;;;;;;;;;;;7.60;76.50;;;;;;4968556;28;119328;-91
2020/12/19 07:20:55;;;;;;;;;;;7.60;76.50;;;;;;4969436;28;116702;-91
2020/12/19 07:23:20;;;;;;;;;;;7.60;76.50;;;;;;4969394;28;116844;-91
2020/12/19 07:25:46;;;;;;;;;;;7.60;76.40;;;;;;4952245;28;119616;-91
2020/12/19 07:28:11;;;;;;;;;;;7.60;76.30;;;;;;4952421;28;119939;-91
2020/12/19 07:30:40;;;;;;;;;;;7.60;76.90;;;;;;4953455;28;116677;-91
2020/12/19 07:33:05;;;;;;;;;;;7.60;76.40;;;;;;4953784;28;116876;-91
2020/12/19 07:35:31;;;;;;;;;;;7.60;76.30;;;;;;4952348;28;120056;-91
2020/12/19 07:37:57;;;;;;;;;;;7.50;76.30;;;;;;4952805;28;120308;-91
2020/12/19 07:40:23;;;;;;;;;;;7.60;76.30;;;;;;4970514;28;116703;-92
2020/12/19 07:42:57;;;;;;;;;;;7.50;76.20;;;;;;4954019;28;116944;-91
2020/12/19 07:45:23;;;;;;;;;;;7.60;76.30;;;;;;4969508;28;120186;-91
2020/12/19 07:47:48;;;;;;;;;;;7.50;76.20;;;;;;4952156;28;118984;-91
2020/12/19 07:50:16;;;;;;;;;;;7.50;76.20;;;;;;4953747;28;116755;-91
2020/12/19 07:52:42;;;;;;;;;;;7.60;76.30;;;;;;4969762;28;116933;-92
2020/12/19 07:55:07;;;;;;;;;;;7.60;76.30;;;;;;4952352;28;120332;-91
2020/12/19 07:57:33;;;;;;;;;;;7.50;76.20;;;;;;4952303;28;120654;-91
2020/12/19 08:00:03;;;;;;;;;;;7.50;76.20;;;;;;4953202;28;117399;-91
2020/12/19 08:02:29;;;;;;;;;;;7.50;76.20;;;;;;4970159;28;116791;-91
2020/12/19 08:04:58;;;;;;;;;;;7.60;76.30;;;;;;4968319;28;120986;-91
2020/12/19 08:07:26;;;;;;;;;;;7.60;76.20;;;;;;4968001;28;119347;-91
2020/12/19 08:10:04;;;;;;;;;;;7.60;76.20;;;;;;4968842;28;116626;-92
2020/12/19 08:12:30;;;;;;;;;;;7.50;76.20;;;;;;4968527;28;116951;-91
2020/12/19 08:14:56;;;;;;;;;;;7.60;76.30;;;;;;4950958;28;120157;-91
2020/12/19 08:17:21;;;;;;;;;;;7.60;76.20;;;;;;4950883;28;119042;-91
2020/12/19 08:19:48;;;;;;;;;;;7.60;76.20;;;;;;4951828;28;116625;-91
2020/12/19 08:22:16;;;;;;;;;;;7.50;76.20;;;;;;4968758;28;116869;-91
2020/12/19 08:24:45;;;;;;;;;;;7.60;76.20;;;;;;4951109;28;120299;-91
2020/12/19 08:27:30;;;;;;;;;;;7.60;76.20;;;;;;4967289;28;119303;-91
2020/12/19 08:29:59;;;;;;;;;;;7.50;76.20;;;;;;4985157;28;116576;-91
2020/12/19 08:32:24;;;;;;;;;;;7.50;76.20;;;;;;4969276;28;116796;-91
2020/12/19 08:34:51;;;;;;;;;;;7.50;76.20;;;;;;4951331;28;120049;-91
2020/12/19 08:37:20;;;;;;;;;;;7.50;76.80;;;;;;4950473;28;119355;-91
2020/12/19 08:40:02;;;;;;;;;;;7.50;76.20;;;;;;4952220;28;116709;-91
2020/12/19 08:42:31;;;;;;;;;;;7.50;76.20;;;;;;4969090;28;117229;-91
2020/12/19 08:45:16;;;;;;;;;;;7.50;76.10;;;;;;4967977;28;121208;-92
2020/12/19 08:47:41;;;;;;;;;;;7.50;76.20;;;;;;4983666;28;120437;-91
2020/12/19 08:50:07;;;;;;;;;;;7.60;76.20;;;;;;4952514;28;116577;-91
2020/12/19 08:52:32;;;;;;;;;;;7.50;76.20;;;;;;4952766;28;117012;-92
2020/12/19 08:54:58;;;;;;;;;;;7.50;76.20;;;;;;4952046;28;120246;-92
2020/12/19 08:57:27;;;;;;;;;;;7.50;76.10;;;;;;4968233;28;119321;-91
2020/12/19 09:00:07;;;;;;;;;;;7.60;76.20;;;;;;4969470;28;116770;-91
2020/12/19 09:02:32;;;;;;;;;;;7.50;76.10;;;;;;4969859;28;116949;-91
2020/12/19 09:04:58;;;;;;;;;;;7.60;76.30;;;;;;4952009;28;120398;-91
2020/12/19 09:07:26;;;;;;;;;;;7.50;76.20;;;;;;4951592;28;119331;-92
2020/12/19 09:09:52;;;;;;;;;;;7.50;76.20;;;;;;4969037;28;116556;-91
2020/12/19 09:12:17;;;;;;;;;;;7.50;76.20;;;;;;4952623;28;116933;-92
2020/12/19 09:14:43;;;;;;;;;;;7.50;76.10;;;;;;4951371;28;119697;-92
2020/12/19 09:17:09;;;;;;;;;;;7.60;76.10;;;;;;4951307;28;119030;-92
2020/12/19 09:19:34;;;;;;;;;;;7.60;76.10;;;;;;4952264;28;117352;-92
2020/12/19 09:22:00;;;;;;;;;;;7.60;76.10;;;;;;4952474;28;116902;-92
2020/12/19 09:24:26;;;;;;;;;;;7.60;76.10;;;;;;4967274;28;120071;-92
2020/12/19 09:26:51;;;;;;;;;;;7.60;76.10;;;;;;4952586;28;119246;-92
2020/12/19 09:29:17;;;;;;;;;;;7.60;76.10;;;;;;4955100;28;116598;-92
2020/12/19 09:31:43;;;;;;;;;;;7.60;76.10;;;;;;4955443;28;116843;-91
2020/12/19 09:34:08;;;;;;;;;;;7.60;76.00;;;;;;4954285;28;120060;-91
2020/12/19 09:36:34;;;;;;;;;;;7.60;76.10;;;;;;4954015;28;119283;-92
2020/12/19 09:38:59;;;;;;;;;;;7.60;76.00;;;;;;4954171;28;116670;-92
2020/12/19 09:41:25;;;;;;;;;;;7.60;76.00;;;;;;4955226;28;116923;-91
2020/12/19 09:43:51;;;;;;;;;;;7.60;76.00;;;;;;4954311;28;119821;-91
2020/12/19 09:46:16;;;;;;;;;;;7.60;75.90;;;;;;4953575;28;118993;-92
2020/12/19 09:48:42;;;;;;;;;;;7.60;76.00;;;;;;4954497;28;116653;-91
2020/12/19 09:51:08;;;;;;;;;;;7.60;75.90;;;;;;4954435;28;116992;-92
2020/12/19 09:53:37;;;;;;;;;;;7.60;75.90;;;;;;4953429;28;119963;-91
2020/12/19 09:56:03;;;;;;;;;;;7.60;76.00;;;;;;4969893;28;118925;-92
2020/12/19 09:58:28;;;;;;;;;;;7.60;75.90;;;;;;4954506;28;116617;-92
2020/12/19 10:00:54;;;;;;;;;;;7.60;76.00;;;;;;4955468;28;116898;-92
2020/12/19 10:03:19;;;;;;;;;;;7.60;75.90;;;;;;4954307;28;119572;-92
2020/12/19 10:05:45;;;;;;;;;;;7.60;75.90;;;;;;4953952;28;119507;-92
2020/12/19 10:08:11;;;;;;;;;;;7.60;75.90;;;;;;4955210;28;116594;-91
2020/12/19 10:10:36;;;;;;;;;;;7.60;75.90;;;;;;4955268;28;117022;-92
2020/12/19 10:13:02;;;;;;;;;;;7.60;75.90;;;;;;4954356;28;120484;-92
2020/12/19 10:15:28;;;;;;;;;;;7.60;75.90;;;;;;4953512;28;119181;-91
2020/12/19 10:17:53;;;;;;;;;;;7.60;76.00;;;;;;4955875;28;116556;-92
2020/12/19 10:20:19;;;;;;;;;;;7.60;76.00;;;;;;4955764;28;116926;-92
2020/12/19 10:22:47;;;;;;;;;;;7.60;76.10;;;;;;4953953;28;119834;-92
2020/12/19 10:25:13;;;;;;;;;;;7.60;76.10;;;;;;4953637;28;119101;-90
2020/12/19 10:27:39;;;;;;;;;;;7.60;76.10;;;;;;4954279;28;117508;-89
2020/12/19 10:30:04;;;;;;;;;;;7.60;76.10;;;;;;4970780;28;117525;-89
2020/12/19 10:32:30;;;;;;;;;;;7.60;76.10;;;;;;4953646;28;119727;-89
2020/12/19 10:34:56;;;;;;;;;;;7.60;76.20;;;;;;4953183;28;120910;-89
2020/12/19 10:37:22;;;;;;;;;;;7.60;76.20;;;;;;4953465;28;117453;-89
2020/12/19 10:39:47;;;;;;;;;;;7.60;76.20;;;;;;4969802;28;117896;-89
2020/12/19 10:42:13;;;;;;;;;;;7.60;76.20;;;;;;4952433;28;119902;-89
2020/12/19 10:44:38;;;;;;;;;;;7.60;76.20;;;;;;4952425;28;119426;-89
2020/12/19 10:47:04;;;;;;;;;;;7.60;76.20;;;;;;4952827;28;118025;-89
2020/12/19 10:49:30;;;;;;;;;;;7.60;76.20;;;;;;4953337;28;117763;-89
2020/12/19 10:51:56;;;;;;;;;;;7.60;76.20;;;;;;4952195;28;121141;-89
2020/12/19 10:54:21;;;;;;;;;;;7.60;76.30;;;;;;4952126;28;120590;-89
2020/12/19 10:56:47;;;;;;;;;;;7.60;76.30;;;;;;4952769;28;117616;-89
2020/12/19 10:59:12;;;;;;;;;;;7.60;76.30;;;;;;4953103;28;117909;-89
2020/12/19 11:01:38;;;;;;;;;;;7.60;76.30;;;;;;4951945;28;120214;-89
2020/12/19 11:04:03;;;;;;;;;;;7.60;76.30;;;;;;4951504;28;120471;-89
2020/12/19 11:06:29;;;;;;;;;;;7.50;76.30;;;;;;4952742;28;117561;-89
2020/12/19 11:08:55;;;;;;;;;;;7.50;76.30;;;;;;4953264;28;117508;-89
2020/12/19 11:11:21;;;;;;;;;;;7.60;76.40;;;;;;4952115;28;121604;-89
2020/12/19 11:13:47;;;;;;;;;;;7.50;76.30;;;;;;4968647;28;119166;-89
2020/12/19 11:16:25;;;;;;;;;;;7.50;76.40;;;;;;4969254;28;117329;-89
2020/12/19 11:18:51;;;;;;;;;;;7.60;76.40;;;;;;4969913;28;117943;-87
2020/12/19 11:21:16;;;;;;;;;;;7.60;76.40;;;;;;4952709;28;120649;-88
2020/12/19 11:23:42;;;;;;;;;;;7.60;76.40;;;;;;4968899;28;119726;-88
2020/12/19 11:26:08;;;;;;;;;;;7.60;76.40;;;;;;4953643;28;117685;-88
2020/12/19 11:28:33;;;;;;;;;;;7.60;76.40;;;;;;4953098;28;117547;-88
2020/12/19 11:30:59;;;;;;;;;;;7.60;76.50;;;;;;4952791;28;121232;-88
2020/12/19 11:33:24;;;;;;;;;;;7.50;76.40;;;;;;4969745;28;120473;-88
2020/12/19 11:35:50;;;;;;;;;;;7.60;76.50;;;;;;4953498;28;117576;-88
2020/12/19 11:38:15;;;;;;;;;;;7.60;76.50;;;;;;4953530;28;117814;-88
2020/12/19 11:40:41;;;;;;;;;;;7.60;76.50;;;;;;4952780;28;121310;-88
2020/12/19 11:43:07;;;;;;;;;;;7.60;76.50;;;;;;4952244;28;120410;-88
2020/12/19 11:45:33;;;;;;;;;;;7.60;76.50;;;;;;4952958;28;117381;-88
2020/12/19 11:47:58;;;;;;;;;;;7.60;76.50;;;;;;4952687;28;117780;-88
2020/12/19 11:50:24;;;;;;;;;;;7.60;76.50;;;;;;4951584;28;120209;-88
2020/12/19 11:52:49;;;;;;;;;;;7.60;76.50;;;;;;4951075;28;120371;-88
2020/12/19 11:55:15;;;;;;;;;;;7.60;76.50;;;;;;4952438;28;117314;-88
2020/12/19 11:57:40;;;;;;;;;;;7.60;76.50;;;;;;4952482;28;117927;-88
2020/12/19 12:00:06;;;;;;;;;;;7.60;76.50;;;;;;4951024;28;120060;-88
2020/12/19 12:02:31;;;;;;;;;;;7.60;76.50;;;;;;4951217;28;120501;-88
2020/12/19 12:04:57;;;;;;;;;;;7.60;76.50;;;;;;4951817;28;117471;-88
2020/12/19 12:07:22;;;;;;;;;;;7.60;76.50;;;;;;4952132;28;117860;-88
2020/12/19 12:09:48;;;;;;;;;;;7.60;76.50;;;;;;4951141;28;121223;-88
2020/12/19 12:12:13;;;;;;;;;;;7.60;76.50;;;;;;4950984;28;119416;-88
2020/12/19 12:14:39;;;;;;;;;;;7.60;76.50;;;;;;4951920;28;117541;-88
2020/12/19 12:17:05;;;;;;;;;;;7.60;76.50;;;;;;4951481;28;117852;-88
2020/12/19 12:19:30;;;;;;;;;;;7.60;76.50;;;;;;4950878;28;120891;-88
2020/12/19 12:21:56;;;;;;;;;;;7.60;76.50;;;;;;4950917;28;121153;-88
2020/12/19 12:24:21;;;;;;;;;;;7.60;77.20;;;;;;4952170;28;117625;-88
2020/12/19 12:26:47;;;;;;;;;;;7.60;76.50;;;;;;4952241;28;117935;-88
2020/12/19 12:29:12;;;;;;;;;;;7.60;76.60;;;;;;4951164;28;121190;-88
2020/12/19 12:31:40;;;;;;;;;;;7.60;76.60;;;;;;4951696;28;119030;-88
2020/12/19 12:34:06;;;;;;;;;;;7.60;76.60;;;;;;4952873;28;117311;-88
2020/12/19 12:36:31;;;;;;;;;;;7.60;76.70;;;;;;4952939;28;117708;-89
2020/12/19 12:38:58;;;;;;;;;;;7.60;76.70;;;;;;4951481;28;121181;-88
2020/12/19 12:41:23;;;;;;;;;;;7.60;76.70;;;;;;4967609;28;119480;-88
2020/12/19 12:43:49;;;;;;;;;;;7.60;76.80;;;;;;4969076;28;117928;-88
2020/12/19 12:46:15;;;;;;;;;;;7.60;76.70;;;;;;4953250;28;117576;-88
2020/12/19 12:48:41;;;;;;;;;;;7.60;76.70;;;;;;4968791;28;120168;-89
2020/12/19 12:51:07;;;;;;;;;;;7.60;76.70;;;;;;4968245;28;120143;-88
2020/12/19 12:53:33;;;;;;;;;;;7.60;77.10;;;;;;4968831;28;117798;-87
2020/12/19 12:55:58;;;;;;;;;;;7.60;76.80;;;;;;4952730;28;117226;-87
2020/12/19 12:58:24;;;;;;;;;;;7.60;76.70;;;;;;4951492;28;119960;-87
2020/12/19 13:00:50;;;;;;;;;;;7.60;76.70;;;;;;4953707;28;119423;-87
2020/12/19 13:03:15;;;;;;;;;;;7.60;76.80;;;;;;4955612;28;117570;-87
2020/12/19 13:05:41;;;;;;;;;;;7.60;76.80;;;;;;4954971;28;117227;-87
2020/12/19 13:08:06;;;;;;;;;;;7.60;76.80;;;;;;4954452;28;120137;-87
2020/12/19 13:10:32;;;;;;;;;;;7.60;76.90;;;;;;4954153;28;119253;-87
2020/12/19 13:12:57;;;;;;;;;;;7.60;76.80;;;;;;4954833;28;117492;-87
2020/12/19 13:15:23;;;;;;;;;;;7.60;76.80;;;;;;4955121;28;117813;-88
2020/12/19 13:17:48;;;;;;;;;;;7.60;76.80;;;;;;4953976;28;121047;-87
2020/12/19 13:20:14;;;;;;;;;;;7.60;76.80;;;;;;4953645;28;118854;-87
2020/12/19 13:22:39;;;;;;;;;;;7.60;76.80;;;;;;4954378;28;117913;-87
2020/12/19 13:25:05;;;;;;;;;;;7.60;76.80;;;;;;4954899;28;117884;-87
2020/12/19 13:27:30;;;;;;;;;;;7.60;76.80;;;;;;4953308;28;119687;-87
2020/12/19 13:29:56;;;;;;;;;;;7.60;76.80;;;;;;4952715;28;118926;-87
2020/12/19 13:32:22;;;;;;;;;;;7.60;76.80;;;;;;4954312;28;117536;-87
2020/12/19 13:34:47;;;;;;;;;;;7.60;76.80;;;;;;4955265;28;117915;-87
2020/12/19 13:37:13;;;;;;;;;;;7.60;76.80;;;;;;4953220;28;121309;-87
2020/12/19 13:39:38;;;;;;;;;;;7.60;76.80;;;;;;4953635;28;118887;-87
2020/12/19 13:42:04;;;;;;;;;;;7.60;76.80;;;;;;4954477;28;117544;-87
2020/12/19 13:44:29;;;;;;;;;;;7.60;76.80;;;;;;4954904;28;117294;-87
2020/12/19 13:46:55;;;;;;;;;;;7.60;76.80;;;;;;4953463;28;121110;-89
2020/12/19 13:49:20;;;;;;;;;;;7.60;76.80;;;;;;4954081;28;120253;-88
2020/12/19 13:51:46;;;;;;;;;;;7.60;76.80;;;;;;4954654;28;117601;-88
2020/12/19 13:54:12;;;;;;;;;;;7.60;76.90;;;;;;4954883;28;117587;-88
2020/12/19 13:56:40;;;;;;;;;;;7.60;76.90;;;;;;4953823;28;120134;-88
2020/12/19 13:59:08;;;;;;;;;;;7.70;77.00;;;;;;4954847;28;119852;-88
2020/12/19 14:01:38;;;;;;;;;;;7.60;76.90;;;;;;4955415;28;117616;-88
2020/12/19 14:04:04;;;;;;;;;;;7.60;76.90;;;;;;4956509;28;117946;-88
2020/12/19 14:06:29;;;;;;;;;;;7.60;76.90;;;;;;4954220;28;120214;-89
2020/12/19 14:08:55;;;;;;;;;;;7.60;76.90;;;;;;4970259;28;120356;-88
2020/12/19 14:11:27;;;;;;;;;;;7.60;76.90;;;;;;4970792;28;117538;-88